Time;durP1;ratioP1;P1;durP2;ratioP2;P2;SDS_P1;SDS_P2;PMS_P1;PMS_P2;Temp;Humidity;BMP_temperature;BMP_pressure;BME280_temperature;BME280_humidity;BME280_pressure;Samples;Min_cycle;Max_cycle;Signal;HPM_P1;HPM_P2
2022/03/30 00:04:38;;;;;;;19.02;7.78;;;;;;;;;;20912358;28;20060;-59
2022/03/30 00:14:40;;;;;;;20.13;7.18;;;;;;;;;;20910963;28;20140;-57
2022/03/30 00:24:43;;;;;;;21.42;7.97;;;;;;;;;;20910496;28;20064;-56
2022/03/30 00:34:45;;;;;;;24.58;7.28;;;;;;;;;;20911461;28;20128;-54
2022/03/30 00:44:48;;;;;;;31.42;8.85;;;;;;;;;;20909580;28;20052;-56
2022/03/30 00:54:51;;;;;;;27.63;8.60;;;;;;;;;;20910316;28;20056;-56
2022/03/30 01:04:53;;;;;;;30.92;8.52;;;;;;;;;;20924852;28;20081;-56
2022/03/30 01:14:55;;;;;;;26.40;8.57;;;;;;;;;;20924192;28;20064;-64
2022/03/30 01:24:57;;;;;;;29.88;8.05;;;;;;;;;;20922409;28;20071;-61
2022/03/30 01:35:03;;;;;;;31.95;9.07;;;;;;;;;;20922314;28;20049;-62
2022/03/30 01:45:11;;;;;;;25.35;8.48;;;;;;;;;;20920401;28;20045;-55
2022/03/30 01:55:22;;;;;;;24.60;8.13;;;;;;;;;;20920435;28;20383;-55
2022/03/30 02:05:31;;;;;;;21.67;5.95;;;;;;;;;;20918802;28;20061;-58
2022/03/30 02:15:34;;;;;;;20.60;6.83;;;;;;;;;;20918990;28;20072;-56
2022/03/30 02:25:42;;;;;;;23.58;7.85;;;;;;;;;;20917691;28;20049;-55
2022/03/30 02:35:53;;;;;;;21.42;6.03;;;;;;;;;;20917068;28;20159;-61
2022/03/30 02:46:04;;;;;;;18.95;5.78;;;;;;;;;;20916310;28;20081;-55
2022/03/30 02:56:09;;;;;;;21.63;5.65;;;;;;;;;;20915272;28;20045;-56
2022/03/30 03:06:32;;;;;;;20.85;5.20;;;;;;;;;;20915087;28;20080;-62
2022/03/30 03:16:49;;;;;;;18.10;5.30;;;;;;;;;;20914226;28;20091;-62
2022/03/30 03:26:57;;;;;;;14.70;5.38;;;;;;;;;;20913603;28;20064;-59
2022/03/30 03:37:01;;;;;;;18.23;5.57;;;;;;;;;;20912601;28;20041;-61
2022/03/30 03:47:07;;;;;;;13.80;5.05;;;;;;;;;;20912364;28;20179;-63
2022/03/30 03:57:10;;;;;;;12.02;4.25;;;;;;;;;;20911763;28;20053;-54
2022/03/30 04:07:12;;;;;;;12.98;4.28;;;;;;;;;;20911211;28;20133;-62
2022/03/30 04:17:18;;;;;;;10.85;3.85;;;;;;;;;;20910420;28;20072;-62
2022/03/30 04:27:21;;;;;;;11.63;3.90;;;;;;;;;;20911676;28;20401;-62
2022/03/30 04:37:25;;;;;;;;;;;;;;;;;;20925529;28;20478;-59
2022/03/30 04:47:28;;;;;;;10.73;4.40;;;;;;;;;;20925391;28;19921;-63
2022/03/30 04:57:32;;;;;;;14.65;4.68;;;;;;;;;;20925780;28;20049;-56
2022/03/30 05:07:34;;;;;;;17.10;5.00;;;;;;;;;;20925166;28;20461;-62
2022/03/30 05:17:40;;;;;;;21.23;5.78;;;;;;;;;;20924611;28;20044;-55
2022/03/30 05:27:44;;;;;;;20.52;6.40;;;;;;;;;;20922377;28;20139;-63
2022/03/30 05:37:48;;;;;;;;;;;;;;;;;;20921913;28;20083;-54
2022/03/30 05:47:51;;;;;;;21.38;5.75;;;;;;;;;;20919727;28;19925;-62
2022/03/30 05:57:53;;;;;;;19.05;5.28;;;;;;;;;;20920552;28;20049;-62
2022/03/30 06:07:58;;;;;;;12.45;4.93;;;;;;;;;;20919235;28;20059;-62
2022/03/30 06:18:03;;;;;;;14.13;5.50;;;;;;;;;;20919035;28;20385;-62
2022/03/30 06:28:05;;;;;;;14.13;5.93;;;;;;;;;;20918172;28;20057;-63
2022/03/30 06:38:08;;;;;;;16.65;5.18;;;;;;;;;;20918668;28;20095;-56
2022/03/30 06:48:11;;;;;;;17.10;6.15;;;;;;;;;;20915728;28;20053;-55
2022/03/30 06:58:13;;;;;;;10.10;4.40;;;;;;;;;;20915324;28;20509;-61
2022/03/30 07:18:46;;;;;;;20.33;5.28;;;;;;;;;;20741290;28;20041;-59
2022/03/30 07:28:49;;;;;;;19.67;5.63;;;;;;;;;;20741480;28;20081;-62
2022/03/30 07:38:52;;;;;;;17.33;6.40;;;;;;;;;;20740992;28;20600;-62
2022/03/30 07:48:55;;;;;;;24.10;6.78;;;;;;;;;;20774449;28;20044;-62
2022/03/30 07:58:59;;;;;;;24.15;6.10;;;;;;;;;;20912047;28;20413;-60
2022/03/30 08:09:03;;;;;;;15.63;5.53;;;;;;;;;;20920664;28;20045;-62
2022/03/30 08:19:07;;;;;;;17.05;6.50;;;;;;;;;;20928823;28;20107;-62
2022/03/30 08:29:10;;;;;;;16.05;4.65;;;;;;;;;;20927422;28;20064;-63
2022/03/30 08:39:12;;;;;;;18.58;4.90;;;;;;;;;;20926297;28;20041;-59
2022/03/30 08:49:15;;;;;;;17.63;4.43;;;;;;;;;;20925613;28;20128;-61
2022/03/30 08:59:23;;;;;;;15.98;4.85;;;;;;;;;;20925064;28;20106;-58
2022/03/30 09:09:29;;;;;;;19.23;5.05;;;;;;;;;;20921802;28;20055;-55
2022/03/30 09:19:36;;;;;;;20.42;5.43;;;;;;;;;;20922862;28;20049;-58
2022/03/30 09:29:39;;;;;;;22.50;6.53;;;;;;;;;;20922215;28;20138;-55
2022/03/30 09:39:42;;;;;;;19.92;6.03;;;;;;;;;;20919833;28;20052;-59
2022/03/30 09:49:52;;;;;;;18.08;5.50;;;;;;;;;;20920361;28;20152;-61
2022/03/30 09:59:59;;;;;;;19.55;5.80;;;;;;;;;;20920266;28;20144;-61
2022/03/30 10:10:01;;;;;;;24.17;5.60;;;;;;;;;;20919265;28;20056;-62
2022/03/30 10:20:05;;;;;;;18.13;6.45;;;;;;;;;;20916684;28;20110;-66
2022/03/30 10:30:09;;;;;;;21.95;6.18;;;;;;;;;;20916310;28;20059;-58
2022/03/30 10:40:22;;;;;;;20.63;6.45;;;;;;;;;;20916567;28;20084;-63
2022/03/30 10:50:32;;;;;;;22.30;6.18;;;;;;;;;;20915545;28;20052;-58
2022/03/30 11:00:36;;;;;;;26.80;8.02;;;;;;;;;;20929565;28;20055;-62
2022/03/30 11:10:47;;;;;;;14.13;4.50;;;;;;;;;;20915192;28;20052;-59
2022/03/30 11:21:15;;;;;;;24.05;7.65;;;;;;;;;;20913724;28;20096;-61
2022/03/30 11:31:21;;;;;;;21.35;7.18;;;;;;;;;;20910240;28;20055;-60
2022/03/30 11:41:23;;;;;;;18.20;7.40;;;;;;;;;;20911232;28;20056;-60
2022/03/30 11:51:26;;;;;;;21.23;7.55;;;;;;;;;;20912042;28;20056;-59
2022/03/30 12:01:29;;;;;;;27.58;8.40;;;;;;;;;;20911362;28;20094;-59
2022/03/30 12:11:35;;;;;;;23.83;7.72;;;;;;;;;;20912258;28;20049;-60
2022/03/30 12:21:38;;;;;;;24.88;7.32;;;;;;;;;;20910344;28;20060;-59
2022/03/30 12:31:49;;;;;;;17.52;7.20;;;;;;;;;;20909933;28;20225;-59
2022/03/30 12:41:58;;;;;;;19.77;6.53;;;;;;;;;;20910201;28;20045;-59
2022/03/30 12:52:07;;;;;;;23.38;7.50;;;;;;;;;;20912044;28;20056;-59
2022/03/30 13:02:23;;;;;;;23.15;7.40;;;;;;;;;;20925676;28;20505;-60
2022/03/30 13:12:32;;;;;;;21.17;7.30;;;;;;;;;;20922695;28;20060;-60
2022/03/30 13:22:34;;;;;;;27.60;7.63;;;;;;;;;;20921823;28;20055;-59
2022/03/30 13:32:39;;;;;;;18.58;7.28;;;;;;;;;;20920458;28;20049;-60
2022/03/30 13:42:42;;;;;;;23.55;7.15;;;;;;;;;;20922000;28;20055;-59
2022/03/30 13:52:45;;;;;;;21.73;6.78;;;;;;;;;;20921082;28;20045;-59
2022/03/30 14:02:47;;;;;;;17.75;6.30;;;;;;;;;;20918849;28;20071;-61
2022/03/30 14:12:49;;;;;;;16.30;6.07;;;;;;;;;;20919673;28;20052;-60
2022/03/30 14:22:52;;;;;;;14.90;5.95;;;;;;;;;;20917838;28;20064;-59
2022/03/30 14:32:56;;;;;;;10.38;4.38;;;;;;;;;;20917206;28;20045;-60
2022/03/30 14:42:59;;;;;;;11.07;3.80;;;;;;;;;;20917597;28;20141;-60
2022/03/30 14:53:00;;;;;;;11.25;3.88;;;;;;;;;;20915607;28;20116;-59
2022/03/30 15:03:03;;;;;;;7.13;3.45;;;;;;;;;;20915140;28;20053;-59
2022/03/30 15:13:04;;;;;;;12.40;4.63;;;;;;;;;;20914227;28;20090;-60
2022/03/30 15:23:06;;;;;;;9.63;3.33;;;;;;;;;;20914557;28;20064;-61
2022/03/30 15:33:08;;;;;;;9.75;3.47;;;;;;;;;;20913071;28;20040;-60
2022/03/30 15:43:12;;;;;;;3.95;1.52;;;;;;;;;;20912469;28;20413;-60
2022/03/30 15:53:14;;;;;;;4.03;1.75;;;;;;;;;;20912667;28;20084;-59
2022/03/30 16:03:19;;;;;;;3.65;1.70;;;;;;;;;;20909994;28;20481;-59
2022/03/30 16:13:21;;;;;;;3.88;1.30;;;;;;;;;;20909965;28;20060;-61
2022/03/30 16:23:23;;;;;;;3.72;1.73;;;;;;;;;;20909982;28;20072;-60
2022/03/30 16:33:26;;;;;;;2.30;1.00;;;;;;;;;;20925908;28;20428;-60
2022/03/30 16:43:28;;;;;;;2.95;1.50;;;;;;;;;;20924938;28;20057;-58
2022/03/30 16:53:30;;;;;;;2.55;1.23;;;;;;;;;;20923563;28;20041;-59
2022/03/30 17:03:33;;;;;;;1.88;0.90;;;;;;;;;;20924161;28;20053;-63
2022/03/30 17:13:34;;;;;;;8.65;3.10;;;;;;;;;;20923399;28;20041;-58
2022/03/30 17:23:36;;;;;;;6.25;2.00;;;;;;;;;;20922535;28;20056;-59
2022/03/30 17:33:38;;;;;;;3.38;1.50;;;;;;;;;;20919521;28;20602;-60
2022/03/30 17:43:40;;;;;;;3.92;1.13;;;;;;;;;;20918037;28;20124;-57
2022/03/30 17:53:43;;;;;;;2.22;1.38;;;;;;;;;;20918135;28;20086;-60
2022/03/30 18:03:46;;;;;;;3.55;1.55;;;;;;;;;;20917589;28;20391;-59
2022/03/30 18:13:53;;;;;;;3.83;1.92;;;;;;;;;;20916258;28;20045;-58
2022/03/30 18:23:55;;;;;;;5.63;1.85;;;;;;;;;;20915016;28;20421;-59
2022/03/30 18:33:57;;;;;;;8.30;2.97;;;;;;;;;;20915749;28;20458;-58
2022/03/30 18:44:00;;;;;;;9.05;3.40;;;;;;;;;;20914742;28;20560;-58
2022/03/30 18:54:03;;;;;;;13.93;4.20;;;;;;;;;;20913371;28;20067;-57
2022/03/30 19:04:05;;;;;;;11.40;4.13;;;;;;;;;;20913181;28;20057;-57
2022/03/30 19:14:07;;;;;;;9.90;4.00;;;;;;;;;;20913550;28;20044;-60
2022/03/30 19:24:09;;;;;;;9.38;3.88;;;;;;;;;;20912880;28;20114;-58
2022/03/30 19:34:13;;;;;;;10.82;3.55;;;;;;;;;;20912374;28;20468;-59
2022/03/30 19:44:15;;;;;;;12.30;6.55;;;;;;;;;;20912148;28;20045;-59
2022/03/30 19:54:18;;;;;;;12.18;5.00;;;;;;;;;;20912192;28;20067;-59
2022/03/30 20:04:20;;;;;;;15.40;4.75;;;;;;;;;;20910870;28;20083;-62
2022/03/30 20:14:23;;;;;;;14.00;5.28;;;;;;;;;;20911196;28;20044;-60
2022/03/30 20:24:26;;;;;;;18.92;6.25;;;;;;;;;;20911130;28;20060;-59
2022/03/30 20:34:28;;;;;;;11.50;4.95;;;;;;;;;;20910293;28;20052;-59
2022/03/30 20:44:30;;;;;;;12.77;6.22;;;;;;;;;;20909654;28;20049;-61
2022/03/30 20:54:33;;;;;;;12.27;5.30;;;;;;;;;;20909613;28;20045;-59
2022/03/30 21:04:35;;;;;;;14.80;5.40;;;;;;;;;;20908923;28;20053;-60
2022/03/30 21:14:37;;;;;;;9.55;4.30;;;;;;;;;;20915070;28;20048;-59
2022/03/30 21:24:39;;;;;;;11.93;5.32;;;;;;;;;;20922782;28;20144;-60
2022/03/30 21:34:41;;;;;;;11.48;4.90;;;;;;;;;;20922567;28;20060;-59
2022/03/30 21:44:44;;;;;;;11.35;4.05;;;;;;;;;;20921654;28;20413;-58
2022/03/30 21:54:47;;;;;;;8.65;3.78;;;;;;;;;;20920468;28;20048;-60
2022/03/30 22:04:51;;;;;;;6.32;3.05;;;;;;;;;;20919831;28;20088;-60
2022/03/30 22:14:54;;;;;;;6.67;4.30;;;;;;;;;;20919359;28;20132;-60
2022/03/30 22:24:56;;;;;;;7.82;2.85;;;;;;;;;;20917402;28;20045;-59
2022/03/30 22:45:19;;;;;;;6.07;2.22;;;;;;;;;;20916327;28;20049;-59
2022/03/30 22:55:22;;;;;;;7.47;2.70;;;;;;;;;;20914590;28;20056;-59
2022/03/30 23:15:46;;;;;;;5.00;2.50;;;;;;;;;;20915433;28;20047;-58
2022/03/30 23:25:48;;;;;;;4.18;2.45;;;;;;;;;;20913115;28;20061;-58
2022/03/30 23:35:50;;;;;;;6.10;2.40;;;;;;;;;;20912794;28;20048;-58
2022/03/30 23:45:55;;;;;;;5.88;3.10;;;;;;;;;;20912912;28;20064;-59
2022/03/30 23:55:56;;;;;;;7.72;3.10;;;;;;;;;;20912414;28;20052;-59
